createdAt,value
2022-09-14T00:01:24.730Z,17.30
2022-09-14T00:03:54.138Z,17.91
2022-09-14T00:06:21.352Z,15.79
2022-09-14T00:08:52.522Z,18.09
2022-09-14T00:11:20.792Z,17.87
2022-09-14T00:13:48.510Z,18.05
2022-09-14T00:16:39.191Z,18.03
2022-09-14T00:19:13.671Z,17.93
2022-09-14T00:21:42.662Z,17.84
2022-09-14T00:24:11.055Z,17.88
2022-09-14T00:26:38.208Z,17.93
2022-09-14T00:29:05.368Z,17.95
2022-09-14T00:31:34.666Z,17.99
2022-09-14T00:34:02.731Z,18.02
2022-09-14T00:36:30.847Z,17.53
2022-09-14T00:38:58.052Z,18.07
2022-09-14T00:41:29.284Z,18.05
2022-09-14T00:44:01.675Z,17.88
2022-09-14T00:46:31.728Z,18.09
2022-09-14T00:49:01.058Z,17.17
2022-09-14T00:51:32.741Z,17.86
2022-09-14T00:54:02.285Z,18.16
2022-09-14T00:56:29.802Z,16.29
2022-09-14T00:58:59.727Z,18.14
2022-09-14T01:01:26.820Z,16.00
2022-09-14T01:03:53.436Z,18.17
2022-09-14T01:06:26.830Z,16.48
2022-09-14T01:09:21.364Z,18.23
2022-09-14T01:11:54.259Z,17.91
2022-09-14T01:14:35.335Z,16.79
2022-09-14T01:17:21.557Z,18.26
2022-09-14T01:20:20.856Z,18.23
2022-09-14T01:23:17.484Z,17.85
2022-09-14T01:25:59.304Z,18.30
2022-09-14T01:28:41.555Z,18.29
2022-09-14T01:31:26.182Z,18.29
2022-09-14T01:34:02.678Z,18.09
2022-09-14T01:36:32.759Z,17.39
2022-09-14T01:39:01.304Z,17.03
2022-09-14T01:41:31.407Z,18.29
2022-09-14T01:44:17.067Z,16.98
2022-09-14T01:46:49.811Z,18.32
2022-09-14T01:49:39.498Z,18.33
2022-09-14T01:52:12.835Z,18.31
2022-09-14T01:54:42.611Z,17.92
2022-09-14T01:57:35.495Z,18.22
2022-09-14T02:00:07.986Z,18.25
2022-09-14T02:02:44.692Z,17.09
2022-09-14T02:05:18.549Z,18.25
2022-09-14T02:07:45.408Z,16.96
2022-09-14T02:10:15.276Z,18.20
2022-09-14T02:12:42.876Z,18.18
2022-09-14T02:15:13.099Z,18.18
2022-09-14T02:17:41.004Z,16.89
2022-09-14T02:20:14.491Z,18.17
2022-09-14T02:22:41.178Z,18.11
2022-09-14T02:25:08.313Z,17.47
2022-09-14T02:27:34.886Z,17.03
2022-09-14T02:30:01.783Z,18.06
2022-09-14T02:32:49.733Z,16.70
2022-09-14T02:35:23.555Z,16.63
2022-09-14T02:38:01.301Z,18.10
2022-09-14T02:41:01.925Z,18.13
2022-09-14T02:43:37.256Z,18.20
2022-09-14T02:46:26.764Z,18.23
2022-09-14T02:49:27.758Z,17.64
2022-09-14T02:52:01.182Z,16.92
2022-09-14T02:54:37.086Z,16.92
2022-09-14T02:57:04.732Z,17.31
2022-09-14T02:59:31.359Z,17.60
2022-09-14T03:01:59.857Z,18.06
2022-09-14T03:04:26.759Z,17.31
2022-09-14T03:06:53.396Z,17.22
2022-09-14T03:09:20.202Z,17.37
2022-09-14T03:11:46.768Z,17.41
2022-09-14T03:14:13.489Z,18.20
2022-09-14T03:16:41.564Z,18.15
2022-09-14T03:19:08.118Z,17.15
2022-09-14T03:21:34.709Z,17.36
2022-09-14T03:24:01.445Z,17.51
2022-09-14T03:26:29.691Z,18.24
2022-09-14T03:28:58.483Z,17.27
2022-09-14T03:31:26.677Z,17.65
2022-09-14T03:33:55.258Z,17.27
2022-09-14T03:36:25.065Z,17.80
2022-09-14T03:38:55.573Z,17.71
2022-09-14T03:41:23.149Z,18.06
2022-09-14T03:43:50.012Z,18.31
2022-09-14T03:46:20.625Z,18.32
2022-09-14T03:48:47.568Z,18.28
2022-09-14T03:51:15.178Z,16.44
2022-09-14T03:53:43.357Z,18.31
2022-09-14T03:56:12.922Z,18.30
2022-09-14T03:58:39.559Z,17.91
2022-09-14T04:01:12.247Z,17.26
2022-09-14T04:03:38.792Z,17.65
2022-09-14T04:06:06.585Z,18.06
2022-09-14T04:08:35.455Z,18.00
2022-09-14T04:11:17.882Z,18.12
2022-09-14T04:13:45.633Z,18.24
2022-09-14T04:16:13.096Z,18.23
2022-09-14T04:18:39.848Z,16.61
2022-09-14T04:21:18.175Z,18.29
2022-09-14T04:24:13.394Z,17.94
2022-09-14T04:26:32.489Z,17.69
2022-09-14T04:28:59.354Z,18.37
2022-09-14T04:31:26.339Z,18.39
2022-09-14T04:33:56.240Z,18.39
2022-09-14T04:36:29.960Z,18.40
2022-09-14T04:39:02.400Z,18.43
2022-09-14T04:41:30.664Z,18.45
2022-09-14T04:43:58.496Z,18.22
2022-09-14T04:46:28.066Z,17.99
2022-09-14T04:48:54.969Z,17.59
2022-09-14T04:51:25.677Z,16.21
2022-09-14T04:53:56.251Z,17.53
2022-09-14T04:56:24.136Z,18.41
2022-09-14T04:58:54.015Z,18.32
2022-09-14T05:01:28.696Z,17.12
2022-09-14T05:03:56.328Z,18.21
2022-09-14T05:06:25.559Z,17.26
2022-09-14T05:08:53.321Z,17.44
2022-09-14T05:11:25.101Z,17.35
2022-09-14T05:14:03.496Z,17.43
2022-09-14T05:16:36.657Z,18.15
2022-09-14T05:19:06.438Z,17.06
2022-09-14T05:21:34.563Z,18.01
2022-09-14T05:24:08.168Z,17.76
2022-09-14T05:26:35.355Z,17.77
2022-09-14T05:29:02.355Z,14.47
2022-09-14T05:31:31.230Z,18.06
2022-09-14T05:33:58.598Z,16.83
2022-09-14T05:36:25.922Z,15.35
2022-09-14T05:38:52.820Z,17.64
2022-09-14T05:41:19.808Z,18.09
2022-09-14T05:43:46.652Z,18.04
2022-09-14T05:46:16.621Z,15.95
2022-09-14T05:48:43.950Z,16.65
2022-09-14T05:51:14.057Z,17.42
2022-09-14T05:53:40.897Z,17.44
2022-09-14T05:56:10.428Z,18.09
2022-09-14T05:58:38.133Z,17.00
2022-09-14T06:01:26.467Z,17.05
2022-09-14T06:03:57.694Z,17.70
2022-09-14T06:06:24.697Z,18.00
2022-09-14T06:08:54.179Z,17.47
2022-09-14T06:11:28.597Z,17.02
2022-09-14T06:13:56.411Z,18.09
2022-09-14T06:16:24.442Z,18.09
2022-09-14T06:18:51.557Z,18.12
2022-09-14T06:21:20.189Z,16.21
2022-09-14T06:23:48.650Z,18.11
2022-09-14T06:26:16.504Z,16.15
2022-09-14T06:28:43.476Z,16.69
2022-09-14T06:31:13.076Z,18.00
2022-09-14T06:33:46.152Z,17.12
2022-09-14T06:36:15.832Z,15.72
2022-09-14T06:38:42.743Z,17.66
2022-09-14T06:41:12.315Z,16.61
2022-09-14T06:43:40.687Z,17.88
2022-09-14T06:46:12.791Z,17.89
2022-09-14T06:48:42.982Z,17.58
2022-09-14T06:51:12.777Z,17.77
2022-09-14T06:53:42.196Z,17.72
2022-09-14T06:56:08.771Z,17.46
2022-09-14T06:58:36.247Z,17.15
2022-09-14T07:01:06.126Z,17.55
2022-09-14T07:03:34.999Z,17.66
2022-09-14T07:06:07.405Z,17.68
2022-09-14T07:08:37.037Z,16.03
2022-09-14T07:11:04.670Z,16.90
2022-09-14T07:13:32.323Z,17.72
2022-09-14T07:16:00.996Z,17.54
2022-09-14T07:18:32.731Z,17.61
2022-09-14T07:21:05.587Z,17.66
2022-09-14T07:23:33.945Z,16.68
2022-09-14T07:26:12.276Z,16.22
2022-09-14T07:28:39.971Z,17.64
2022-09-14T07:31:18.991Z,16.17
2022-09-14T07:33:46.126Z,15.98
2022-09-14T07:36:13.498Z,16.71
2022-09-14T07:38:55.567Z,16.96
2022-09-14T07:41:24.866Z,17.34
2022-09-14T07:43:52.692Z,17.78
2022-09-14T07:46:21.487Z,17.17
2022-09-14T07:48:49.175Z,16.92
2022-09-14T07:51:16.073Z,17.66
2022-09-14T07:53:43.356Z,16.52
2022-09-14T07:56:13.012Z,17.25
2022-09-14T07:58:40.197Z,17.25
2022-09-14T08:01:12.023Z,16.83
2022-09-14T08:03:43.437Z,17.84
2022-09-14T08:06:16.298Z,17.07
2022-09-14T08:08:46.489Z,16.84
2022-09-14T08:11:19.413Z,18.03
2022-09-14T08:13:54.959Z,17.45
2022-09-14T08:16:22.658Z,17.38
2022-09-14T08:18:55.671Z,17.25
2022-09-14T08:21:23.302Z,17.43
2022-09-14T08:23:49.945Z,17.26
2022-09-14T08:26:27.444Z,18.38
2022-09-14T08:28:55.955Z,17.95
2022-09-14T08:31:24.782Z,18.65
2022-09-14T08:34:06.804Z,18.75
2022-09-14T08:36:38.977Z,18.77
2022-09-14T08:39:09.393Z,18.70
2022-09-14T08:41:58.925Z,18.69
2022-09-14T08:44:25.902Z,18.59
2022-09-14T08:47:15.643Z,18.08
2022-09-14T08:50:02.561Z,18.21
2022-09-14T08:52:32.846Z,18.38
2022-09-14T08:55:30.439Z,18.34
2022-09-14T08:58:07.174Z,18.21
2022-09-14T09:00:52.752Z,18.39
2022-09-14T09:03:31.055Z,16.83
2022-09-14T09:06:20.169Z,18.44
2022-09-14T09:09:09.705Z,18.40
2022-09-14T09:11:46.670Z,16.04
2022-09-14T09:14:20.521Z,18.38
2022-09-14T09:16:50.585Z,18.44
2022-09-14T09:19:27.990Z,17.64
2022-09-14T09:21:56.138Z,18.36
2022-09-14T09:24:35.193Z,17.94
2022-09-14T09:27:13.358Z,18.42
2022-09-14T09:29:40.324Z,18.55
2022-09-14T09:32:20.390Z,18.10
2022-09-14T09:35:22.257Z,18.27
2022-09-14T09:38:16.310Z,18.68
2022-09-14T09:40:52.132Z,18.40
2022-09-14T09:43:38.517Z,18.22
2022-09-14T09:46:08.229Z,18.53
2022-09-14T09:48:43.830Z,18.29
2022-09-14T09:51:13.903Z,17.81
2022-09-14T09:53:52.131Z,18.67
2022-09-14T09:56:23.872Z,18.70
2022-09-14T09:58:52.145Z,17.83
2022-09-14T10:01:35.659Z,18.63
2022-09-14T10:04:10.405Z,16.91
2022-09-14T10:06:46.562Z,17.99
2022-09-14T10:09:17.621Z,14.45
2022-09-14T10:11:45.871Z,18.67
2022-09-14T10:14:27.182Z,18.75
2022-09-14T10:17:04.198Z,18.55
2022-09-14T10:19:33.130Z,17.22
2022-09-14T10:22:17.624Z,18.82
2022-09-14T10:25:15.418Z,16.25
2022-09-14T10:27:50.584Z,18.71
2022-09-14T10:30:39.851Z,18.60
2022-09-14T10:33:13.194Z,17.68
2022-09-14T10:35:52.257Z,18.26
2022-09-14T10:38:31.411Z,18.30
2022-09-14T10:41:16.676Z,17.90
2022-09-14T10:43:55.447Z,18.37
2022-09-14T10:46:30.860Z,18.25
2022-09-14T10:49:25.605Z,18.22
2022-09-14T10:52:02.392Z,18.10
2022-09-14T10:54:56.953Z,17.79
2022-09-14T10:57:55.327Z,18.06
2022-09-14T11:00:23.055Z,18.19
2022-09-14T11:02:59.086Z,18.33
2022-09-14T11:05:30.205Z,17.99
2022-09-14T11:08:28.311Z,18.41
2022-09-14T11:11:24.209Z,17.77
2022-09-14T11:13:58.635Z,17.69
2022-09-14T11:16:31.452Z,18.26
2022-09-14T11:19:19.469Z,18.31
2022-09-14T11:22:23.884Z,18.33
2022-09-14T11:25:00.651Z,18.42
2022-09-14T11:27:44.723Z,17.22
2022-09-14T11:30:24.079Z,18.60
2022-09-14T11:32:57.854Z,18.67
2022-09-14T11:35:30.973Z,17.66
2022-09-14T11:38:14.601Z,18.88
2022-09-14T11:40:56.291Z,17.67
2022-09-14T11:43:50.767Z,19.26
2022-09-14T11:46:50.885Z,18.66
2022-09-14T11:49:49.813Z,19.88
2022-09-14T11:52:21.162Z,19.04
2022-09-14T11:54:50.133Z,20.13
2022-09-14T11:57:31.417Z,20.04
2022-09-14T12:00:02.787Z,20.02
2022-09-14T12:02:37.521Z,20.08
2022-09-14T12:05:07.324Z,20.15
2022-09-14T12:07:39.752Z,19.98
2022-09-14T12:10:16.187Z,19.91
2022-09-14T12:12:48.488Z,19.82
2022-09-14T12:15:25.018Z,19.56
2022-09-14T12:18:10.686Z,18.83
2022-09-14T12:20:37.266Z,19.74
2022-09-14T12:23:22.085Z,19.33
2022-09-14T12:26:06.984Z,19.60
2022-09-14T12:28:39.850Z,14.32
2022-09-14T12:31:12.455Z,19.65
2022-09-14T12:33:39.240Z,19.66
2022-09-14T12:36:34.968Z,19.50
2022-09-14T12:39:24.103Z,18.32
2022-09-14T12:41:50.749Z,19.30
2022-09-14T12:44:39.449Z,19.09
2022-09-14T12:47:24.643Z,18.96
2022-09-14T12:50:00.631Z,17.66
2022-09-14T12:52:42.917Z,15.28
2022-09-14T12:55:51.897Z,18.57
2022-09-14T12:58:41.917Z,18.66
2022-09-14T13:01:34.994Z,18.76
2022-09-14T13:04:05.145Z,18.79
2022-09-14T13:06:42.543Z,18.72
2022-09-14T13:09:22.886Z,17.75
2022-09-14T13:11:56.110Z,18.73
2022-09-14T13:14:27.350Z,17.80
2022-09-14T13:16:57.520Z,18.81
2022-09-14T13:19:34.239Z,17.93
2022-09-14T13:22:02.567Z,19.04
2022-09-14T13:24:42.880Z,18.69
2022-09-14T13:27:21.735Z,18.59
2022-09-14T13:29:56.509Z,19.17
2022-09-14T13:32:24.068Z,19.20
2022-09-14T13:34:52.585Z,19.09
2022-09-14T13:37:22.307Z,15.75
2022-09-14T13:39:54.627Z,18.04
2022-09-14T13:42:23.149Z,18.80
2022-09-14T13:44:51.086Z,17.00
2022-09-14T13:47:24.774Z,18.59
2022-09-14T13:49:53.963Z,17.02
2022-09-14T13:52:33.918Z,18.44
2022-09-14T13:55:14.480Z,17.73
2022-09-14T13:58:09.788Z,18.24
2022-09-14T14:01:06.137Z,18.26
2022-09-14T14:03:39.328Z,18.23
2022-09-14T14:06:30.286Z,17.40
2022-09-14T14:09:06.664Z,17.05
2022-09-14T14:11:46.240Z,17.64
2022-09-14T14:14:16.132Z,17.98
2022-09-14T14:17:20.897Z,17.66
2022-09-14T14:19:49.825Z,16.77
2022-09-14T14:22:20.894Z,17.31
2022-09-14T14:25:12.420Z,17.20
2022-09-14T14:27:44.342Z,16.95
2022-09-14T14:30:20.864Z,17.19
2022-09-14T14:32:52.521Z,17.22
2022-09-14T14:35:22.564Z,16.09
2022-09-14T14:37:50.213Z,17.05
2022-09-14T14:40:18.538Z,17.04
2022-09-14T14:42:46.551Z,16.88
2022-09-14T14:45:20.113Z,15.16
2022-09-14T14:47:48.401Z,16.72
2022-09-14T14:50:27.069Z,16.49
2022-09-14T14:52:54.594Z,16.15
2022-09-14T14:55:23.066Z,16.58
2022-09-14T14:57:51.239Z,16.73
2022-09-14T15:00:23.930Z,16.79
2022-09-14T15:02:51.588Z,16.11
2022-09-14T15:05:19.005Z,16.26
2022-09-14T15:07:46.694Z,16.77
2022-09-14T15:10:16.724Z,16.96
2022-09-14T15:12:43.900Z,15.47
2022-09-14T15:15:23.902Z,17.06
2022-09-14T15:17:51.576Z,16.15
2022-09-14T15:20:19.779Z,17.13
2022-09-14T15:22:47.712Z,16.45
2022-09-14T15:25:15.499Z,17.28
2022-09-14T15:27:43.107Z,16.99
2022-09-14T15:30:11.901Z,16.17
2022-09-14T15:32:39.631Z,17.29
2022-09-14T15:35:08.980Z,17.26
2022-09-14T15:37:35.859Z,17.06
2022-09-14T15:40:03.515Z,15.72
2022-09-14T15:42:30.455Z,17.45
2022-09-14T15:44:57.338Z,17.79
2022-09-14T15:47:24.040Z,18.26
2022-09-14T15:49:52.009Z,18.30
2022-09-14T15:52:20.174Z,17.49
2022-09-14T15:54:46.847Z,18.68
2022-09-14T16:00:48.344Z,18.38
2022-09-14T16:03:16.935Z,17.76
2022-09-14T16:05:43.893Z,13.91
2022-09-14T16:08:10.737Z,15.86
2022-09-14T16:10:37.353Z,18.47
2022-09-14T16:13:04.144Z,17.38
2022-09-14T16:15:30.910Z,17.00
2022-09-14T16:17:57.642Z,18.28
2022-09-14T16:20:24.251Z,18.26
2022-09-14T16:22:51.601Z,18.23
2022-09-14T16:25:18.405Z,18.06
2022-09-14T16:27:45.346Z,17.55
2022-09-14T16:30:12.520Z,18.32
2022-09-14T16:32:39.491Z,18.27
2022-09-14T16:35:08.261Z,18.28
2022-09-14T16:37:35.842Z,17.62
2022-09-14T16:40:03.633Z,18.06
2022-09-14T16:42:30.285Z,17.59
2022-09-14T16:44:56.797Z,17.80
2022-09-14T16:47:26.026Z,17.94
2022-09-14T16:49:53.060Z,17.14
2022-09-14T16:52:19.887Z,16.62
2022-09-14T16:54:46.867Z,17.07
2022-09-14T16:57:14.966Z,13.57
2022-09-14T16:59:41.661Z,17.56
2022-09-14T17:02:14.345Z,17.28
2022-09-14T17:04:41.045Z,17.30
2022-09-14T17:07:07.840Z,16.89
2022-09-14T17:09:34.939Z,17.50
2022-09-14T17:12:01.675Z,17.45
2022-09-14T17:14:32.083Z,17.48
2022-09-14T17:16:59.115Z,16.69
2022-09-14T17:19:27.036Z,16.19
2022-09-14T17:21:53.895Z,17.31
2022-09-14T17:24:23.398Z,17.37
2022-09-14T17:26:50.224Z,17.19
2022-09-14T17:29:18.237Z,17.15
2022-09-14T17:31:45.819Z,17.08
2022-09-14T17:34:15.950Z,17.10
2022-09-14T17:36:42.886Z,16.61
2022-09-14T17:39:12.276Z,17.02
2022-09-14T17:41:42.824Z,16.99
2022-09-14T17:44:12.509Z,16.95
2022-09-14T17:46:48.176Z,16.10
2022-09-14T17:49:17.923Z,15.72
2022-09-14T17:51:45.351Z,15.64
2022-09-14T17:54:12.904Z,16.59
2022-09-14T17:56:39.524Z,16.85
2022-09-14T17:59:20.083Z,16.26
2022-09-14T18:01:48.899Z,16.62
2022-09-14T18:04:16.846Z,15.71
2022-09-14T18:06:48.115Z,16.56
2022-09-14T18:09:19.734Z,14.97
2022-09-14T18:11:46.852Z,11.71
2022-09-14T18:14:14.988Z,15.80
2022-09-14T18:16:45.930Z,16.70
2022-09-14T18:19:13.221Z,16.53
2022-09-14T18:21:40.588Z,15.68
2022-09-14T18:24:07.347Z,15.19
2022-09-14T18:26:35.029Z,16.43
2022-09-14T18:29:03.232Z,15.77
2022-09-14T18:31:33.377Z,15.61
2022-09-14T18:34:01.028Z,15.27
2022-09-14T18:36:30.332Z,14.15
2022-09-14T18:38:59.641Z,15.71
2022-09-14T18:41:31.410Z,16.09
2022-09-14T18:43:59.196Z,15.89
2022-09-14T18:46:28.329Z,15.63
2022-09-14T18:48:58.057Z,15.66
2022-09-14T18:51:27.854Z,16.11
2022-09-14T18:54:08.978Z,15.10
2022-09-14T18:56:37.055Z,16.06
2022-09-14T19:02:15.970Z,15.45
2022-09-14T19:04:42.575Z,14.97
2022-09-14T19:07:09.412Z,15.25
2022-09-14T19:09:36.046Z,14.73
2022-09-14T19:12:03.085Z,14.24
2022-09-14T19:14:29.727Z,15.76
2022-09-14T19:16:58.411Z,15.45
2022-09-14T19:19:26.284Z,15.69
2022-09-14T19:21:54.027Z,15.25
2022-09-14T19:24:20.868Z,14.63
2022-09-14T19:26:51.155Z,14.49
2022-09-14T19:29:20.801Z,14.88
2022-09-14T19:31:51.445Z,15.22
2022-09-14T19:34:20.447Z,15.62
2022-09-14T19:36:50.072Z,14.83
2022-09-14T19:39:16.798Z,15.46
2022-09-14T19:41:44.179Z,15.05
2022-09-14T19:44:11.224Z,15.64
2022-09-14T19:46:39.682Z,14.23
2022-09-14T19:49:18.436Z,14.67
2022-09-14T19:51:45.832Z,15.55
2022-09-14T19:54:17.534Z,15.39
2022-09-14T19:56:44.425Z,15.40
2022-09-14T19:59:11.158Z,15.25
2022-09-14T20:01:39.730Z,14.27
2022-09-14T20:04:07.533Z,15.56
2022-09-14T20:06:38.151Z,14.80
2022-09-14T20:09:09.294Z,15.35
2022-09-14T20:11:38.239Z,13.30
2022-09-14T20:14:07.126Z,14.86
2022-09-14T20:16:39.768Z,14.93
2022-09-14T20:19:11.043Z,12.77
2022-09-14T20:21:39.066Z,15.30
2022-09-14T20:24:22.897Z,13.91
2022-09-14T20:26:51.249Z,15.12
2022-09-14T20:29:19.718Z,15.44
2022-09-14T20:31:47.436Z,11.96
2022-09-14T20:34:16.948Z,14.81
2022-09-14T20:36:43.883Z,12.84
2022-09-14T20:39:11.284Z,15.35
2022-09-14T20:41:38.063Z,12.78
2022-09-14T20:44:05.035Z,10.36
2022-09-14T20:46:35.379Z,15.38
2022-09-14T20:49:04.261Z,14.57
2022-09-14T20:51:35.278Z,15.34
2022-09-14T20:54:02.433Z,15.41
2022-09-14T20:56:31.905Z,13.81
2022-09-14T20:59:00.885Z,15.41
2022-09-14T21:01:30.842Z,15.39
2022-09-14T21:04:08.529Z,15.31
2022-09-14T21:06:41.275Z,13.22
2022-09-14T21:09:10.104Z,14.93
2022-09-14T21:11:38.390Z,12.63
2022-09-14T21:14:05.421Z,12.42
2022-09-14T21:16:36.905Z,15.09
2022-09-14T21:19:15.908Z,13.21
2022-09-14T21:21:43.882Z,10.58
2022-09-14T21:24:14.918Z,13.28
2022-09-14T21:26:45.883Z,13.91
2022-09-14T21:29:20.312Z,15.28
2022-09-14T21:31:48.850Z,14.90
2022-09-14T21:34:16.319Z,14.54
2022-09-14T21:36:46.757Z,15.32
2022-09-14T21:39:17.650Z,14.74
2022-09-14T21:41:46.842Z,13.17
2022-09-14T21:44:13.923Z,14.97
2022-09-14T21:46:40.858Z,13.73
2022-09-14T21:49:12.368Z,15.13
2022-09-14T21:51:39.207Z,15.10
2022-09-14T21:54:09.291Z,15.13
2022-09-14T21:56:39.733Z,15.11
2022-09-14T21:59:10.161Z,14.41
2022-09-14T22:01:37.192Z,13.85
2022-09-14T22:04:05.246Z,13.05
2022-09-14T22:06:33.917Z,13.45
2022-09-14T22:09:01.436Z,13.30
2022-09-14T22:11:31.238Z,13.83
2022-09-14T22:14:07.571Z,14.46
2022-09-14T22:16:36.921Z,14.92
2022-09-14T22:19:12.320Z,14.41
2022-09-14T22:21:39.710Z,13.77
2022-09-14T22:24:10.119Z,13.45
2022-09-14T22:26:39.759Z,12.17
2022-09-14T22:29:08.926Z,14.84
2022-09-14T22:31:39.823Z,13.79
2022-09-14T22:34:07.617Z,14.27
2022-09-14T22:36:34.811Z,13.28
2022-09-14T22:39:01.761Z,13.60
2022-09-14T22:41:28.829Z,12.63
2022-09-14T22:43:56.222Z,14.39
2022-09-14T22:46:24.198Z,11.48
2022-09-14T22:48:51.889Z,14.61
2022-09-14T22:51:25.153Z,14.62
2022-09-14T22:53:52.894Z,14.43
2022-09-14T22:56:28.046Z,11.89
2022-09-14T22:58:55.546Z,11.59
2022-09-14T23:01:25.139Z,14.55
2022-09-14T23:03:58.472Z,14.56
2022-09-14T23:06:29.470Z,13.89
2022-09-14T23:08:56.631Z,13.47
2022-09-14T23:11:23.505Z,13.56
2022-09-14T23:13:50.437Z,13.64
2022-09-14T23:16:20.591Z,12.39
2022-09-14T23:18:55.643Z,12.74
2022-09-14T23:21:22.817Z,13.09
2022-09-14T23:23:53.913Z,14.23
2022-09-14T23:26:22.519Z,12.68
2022-09-14T23:28:54.146Z,14.24
2022-09-14T23:31:21.968Z,13.26
2022-09-14T23:33:50.432Z,13.09
2022-09-14T23:36:17.698Z,14.29
2022-09-14T23:38:45.382Z,13.64
2022-09-14T23:41:12.124Z,13.81
2022-09-14T23:43:38.851Z,14.13
2022-09-14T23:46:06.401Z,13.41
2022-09-14T23:48:33.129Z,13.85
2022-09-14T23:51:01.953Z,11.45
2022-09-14T23:53:29.060Z,14.21
2022-09-14T23:55:56.537Z,13.38
2022-09-14T23:58:24.082Z,14.26
